createdAt,value
2023-05-03T00:01:16.346Z,84.07
2023-05-03T00:03:43.467Z,84.24
2023-05-03T00:06:12.513Z,83.01
2023-05-03T00:08:45.980Z,84.01
2023-05-03T00:11:13.527Z,84.51
2023-05-03T00:13:40.991Z,84.67
2023-05-03T00:16:07.803Z,84.52
2023-05-03T00:18:35.875Z,84.84
2023-05-03T00:21:03.571Z,85.13
2023-05-03T00:23:30.528Z,85.00
2023-05-03T00:26:00.737Z,83.99
2023-05-03T00:28:28.209Z,83.52
2023-05-03T00:30:55.662Z,84.13
2023-05-03T00:33:27.219Z,84.59
2023-05-03T00:35:55.121Z,84.63
2023-05-03T00:38:22.569Z,84.80
2023-05-03T00:40:54.844Z,84.07
2023-05-03T00:43:24.046Z,83.74
2023-05-03T00:45:52.585Z,83.95
2023-05-03T00:48:22.784Z,83.29
2023-05-03T00:50:49.750Z,82.62
2023-05-03T00:53:17.502Z,82.41
2023-05-03T00:55:46.244Z,81.93
2023-05-03T00:58:13.448Z,82.01
2023-05-03T01:00:42.531Z,84.18
2023-05-03T01:03:09.979Z,83.41
2023-05-03T01:05:51.487Z,82.66
2023-05-03T01:08:28.503Z,83.42
2023-05-03T01:11:02.663Z,83.68
2023-05-03T01:13:38.606Z,84.63
2023-05-03T01:16:17.294Z,84.92
2023-05-03T01:18:47.600Z,85.18
2023-05-03T01:21:17.699Z,86.72
2023-05-03T01:23:55.081Z,87.04
2023-05-03T01:26:24.772Z,87.09
2023-05-03T01:28:53.431Z,87.50
2023-05-03T01:31:29.117Z,87.03
2023-05-03T01:34:10.960Z,86.38
2023-05-03T01:36:41.524Z,86.73
2023-05-03T01:39:16.978Z,88.61
2023-05-03T01:41:47.032Z,88.68
2023-05-03T01:44:16.032Z,88.10
2023-05-03T01:46:45.073Z,88.92
2023-05-03T01:49:13.284Z,88.84
2023-05-03T01:51:40.978Z,89.73
2023-05-03T01:54:08.596Z,89.27
2023-05-03T01:56:37.075Z,89.74
2023-05-03T01:59:06.024Z,89.85
2023-05-03T02:01:33.499Z,89.58
2023-05-03T02:04:00.860Z,89.19
2023-05-03T02:06:28.358Z,89.25
2023-05-03T02:08:56.087Z,88.96
2023-05-03T02:11:23.456Z,88.84
2023-05-03T02:13:50.909Z,88.18
2023-05-03T02:16:20.956Z,87.35
2023-05-03T02:18:48.279Z,88.07
2023-05-03T02:21:15.708Z,87.78
2023-05-03T02:23:43.130Z,87.15
2023-05-03T02:26:10.177Z,86.31
2023-05-03T02:28:37.391Z,85.68
2023-05-03T02:31:04.836Z,85.91
2023-05-03T02:33:34.272Z,85.01
2023-05-03T02:36:01.935Z,85.14
2023-05-03T02:38:30.158Z,85.36
2023-05-03T02:40:57.862Z,84.86
2023-05-03T02:43:25.334Z,84.40
2023-05-03T02:45:52.714Z,84.04
2023-05-03T02:48:20.186Z,84.34
2023-05-03T02:50:49.105Z,84.47
2023-05-03T02:53:16.711Z,84.63
2023-05-03T02:55:43.868Z,84.76
2023-05-03T02:58:13.734Z,84.71
2023-05-03T03:00:41.819Z,84.83
2023-05-03T03:03:09.226Z,83.50
2023-05-03T03:05:37.272Z,83.44
2023-05-03T03:08:07.150Z,83.88
2023-05-03T03:10:34.661Z,82.49
2023-05-03T03:13:02.728Z,82.54
2023-05-03T03:15:30.190Z,82.13
2023-05-03T03:17:57.950Z,81.13
2023-05-03T03:20:25.648Z,80.41
2023-05-03T03:22:53.266Z,80.47
2023-05-03T03:25:22.349Z,80.07
2023-05-03T03:27:50.138Z,79.43
2023-05-03T03:30:17.330Z,79.29
2023-05-03T03:32:44.779Z,79.18
2023-05-03T03:35:12.881Z,78.77
2023-05-03T03:37:40.048Z,78.07
2023-05-03T03:40:08.580Z,77.45
2023-05-03T03:42:38.223Z,77.33
2023-05-03T03:45:06.273Z,76.74
2023-05-03T03:47:34.125Z,76.15
2023-05-03T03:50:02.184Z,76.04
2023-05-03T03:52:30.231Z,76.41
2023-05-03T03:54:57.711Z,75.67
2023-05-03T03:57:25.718Z,75.76
2023-05-03T03:59:54.575Z,75.52
2023-05-03T04:02:21.781Z,75.02
2023-05-03T04:04:50.398Z,75.32
2023-05-03T04:07:18.199Z,76.35
2023-05-03T04:09:45.898Z,76.01
2023-05-03T04:12:13.410Z,74.98
2023-05-03T04:14:40.988Z,75.22
2023-05-03T04:17:11.405Z,74.57
2023-05-03T04:19:38.786Z,74.55
2023-05-03T04:22:05.949Z,73.49
2023-05-03T04:24:33.680Z,73.20
2023-05-03T04:27:00.962Z,73.02
2023-05-03T04:29:28.245Z,73.39
2023-05-03T04:31:55.586Z,73.64
2023-05-03T04:34:24.457Z,75.29
2023-05-03T04:36:51.881Z,75.98
2023-05-03T04:39:19.120Z,75.12
2023-05-03T04:41:45.937Z,75.36
2023-05-03T04:44:13.528Z,74.60
2023-05-03T04:46:41.267Z,73.89
2023-05-03T04:49:08.980Z,73.54
2023-05-03T04:51:38.197Z,73.92
2023-05-03T04:54:05.122Z,73.97
2023-05-03T04:56:32.404Z,74.68
2023-05-03T04:59:00.057Z,74.05
2023-05-03T05:01:28.212Z,74.03
2023-05-03T05:03:57.124Z,73.67
2023-05-03T05:06:24.682Z,73.59
2023-05-03T05:08:52.968Z,73.42
2023-05-03T05:11:20.444Z,72.57
2023-05-03T05:13:48.287Z,72.55
2023-05-03T05:16:15.851Z,71.46
2023-05-03T05:18:43.401Z,72.40
2023-05-03T05:21:10.903Z,71.96
2023-05-03T05:23:38.049Z,72.45
2023-05-03T05:26:06.579Z,73.13
2023-05-03T05:28:34.125Z,72.24
2023-05-03T05:31:01.498Z,71.41
2023-05-03T05:33:29.005Z,69.67
2023-05-03T05:35:56.455Z,67.24
2023-05-03T05:38:23.850Z,66.80
2023-05-03T05:40:51.353Z,65.99
2023-05-03T05:43:20.801Z,65.46
2023-05-03T05:45:48.406Z,65.54
2023-05-03T05:48:16.162Z,64.57
2023-05-03T05:50:44.474Z,62.85
2023-05-03T05:53:12.446Z,61.63
2023-05-03T05:55:40.243Z,60.52
2023-05-03T05:58:07.819Z,59.15
2023-05-03T06:00:38.011Z,59.53
2023-05-03T06:03:06.005Z,59.41
2023-05-03T06:05:33.594Z,57.83
2023-05-03T06:08:07.104Z,57.12
2023-05-03T06:10:34.401Z,55.94
2023-05-03T06:13:01.833Z,53.85
2023-05-03T06:15:29.655Z,53.58
2023-05-03T06:17:58.488Z,53.05
2023-05-03T06:20:25.349Z,52.81
2023-05-03T06:22:55.171Z,52.13
2023-05-03T06:25:22.443Z,52.12
2023-05-03T06:27:49.936Z,52.22
2023-05-03T06:30:17.404Z,51.73
2023-05-03T06:32:47.923Z,49.43
2023-05-03T06:35:17.246Z,49.64
2023-05-03T06:37:44.536Z,49.35
2023-05-03T06:40:12.437Z,50.03
2023-05-03T06:42:39.769Z,49.83
2023-05-03T06:45:07.904Z,50.43
2023-05-03T06:47:35.468Z,50.02
2023-05-03T06:50:03.010Z,51.00
2023-05-03T06:52:32.050Z,51.93
2023-05-03T06:54:58.735Z,50.81
2023-05-03T06:57:28.211Z,51.13
2023-05-03T06:59:56.253Z,51.77
2023-05-03T07:02:24.039Z,52.29
2023-05-03T07:04:50.861Z,52.12
2023-05-03T07:07:18.415Z,50.40
2023-05-03T07:09:47.290Z,48.90
2023-05-03T07:12:14.004Z,47.93
2023-05-03T07:14:41.438Z,48.25
2023-05-03T07:17:08.521Z,47.70
2023-05-03T07:19:36.076Z,45.14
2023-05-03T07:22:04.645Z,46.34
2023-05-03T07:24:32.564Z,46.60
2023-05-03T07:27:03.491Z,46.88
2023-05-03T07:29:30.947Z,46.28
2023-05-03T07:31:58.905Z,46.44
2023-05-03T07:34:25.629Z,46.12
2023-05-03T07:36:53.038Z,45.11
2023-05-03T07:39:21.619Z,45.28
2023-05-03T07:41:48.375Z,44.80
2023-05-03T07:44:18.362Z,44.21
2023-05-03T07:46:45.613Z,45.02
2023-05-03T07:49:12.394Z,45.84
2023-05-03T07:51:39.542Z,45.62
2023-05-03T07:54:08.918Z,45.87
2023-05-03T07:56:36.898Z,46.38
2023-05-03T07:59:10.042Z,45.39
2023-05-03T08:01:39.858Z,44.64
2023-05-03T08:04:07.559Z,45.72
2023-05-03T08:06:34.943Z,45.61
2023-05-03T08:09:02.754Z,45.26
2023-05-03T08:11:30.314Z,45.33
2023-05-03T08:13:57.906Z,45.33
2023-05-03T08:16:26.011Z,44.72
2023-05-03T08:18:55.559Z,45.01
2023-05-03T08:21:22.695Z,43.91
2023-05-03T08:23:49.500Z,44.41
2023-05-03T08:26:16.326Z,43.14
2023-05-03T08:28:43.910Z,43.61
2023-05-03T08:31:10.829Z,44.05
2023-05-03T08:33:38.231Z,44.14
2023-05-03T08:36:08.380Z,44.06
2023-05-03T08:38:36.046Z,42.86
2023-05-03T08:41:13.021Z,42.77
2023-05-03T08:43:46.313Z,42.51
2023-05-03T08:46:14.454Z,42.66
2023-05-03T08:48:46.687Z,42.72
2023-05-03T08:51:16.545Z,42.60
2023-05-03T08:53:44.029Z,43.03
2023-05-03T08:56:15.671Z,43.37
2023-05-03T08:58:43.437Z,43.31
2023-05-03T09:01:16.988Z,42.94
2023-05-03T09:03:50.951Z,43.60
2023-05-03T09:06:23.597Z,43.26
2023-05-03T09:08:51.260Z,42.80
2023-05-03T09:11:23.526Z,41.99
2023-05-03T09:13:52.112Z,42.79
2023-05-03T09:16:27.542Z,42.52
2023-05-03T09:18:58.777Z,42.26
2023-05-03T09:21:28.565Z,41.76
2023-05-03T09:23:56.406Z,42.21
2023-05-03T09:26:30.832Z,41.79
2023-05-03T09:29:02.349Z,41.60
2023-05-03T09:31:31.583Z,40.95
2023-05-03T09:34:00.972Z,42.34
2023-05-03T09:36:46.408Z,42.14
2023-05-03T09:39:18.084Z,41.77
2023-05-03T09:41:45.648Z,41.14
2023-05-03T09:44:15.013Z,40.82
2023-05-03T09:47:03.420Z,40.58
2023-05-03T09:49:33.058Z,41.08
2023-05-03T09:52:01.805Z,41.45
2023-05-03T09:54:30.892Z,41.27
2023-05-03T09:57:00.202Z,40.85
2023-05-03T09:59:27.372Z,40.69
2023-05-03T10:01:57.493Z,40.29
2023-05-03T10:04:26.641Z,40.32
2023-05-03T10:07:01.017Z,40.28
2023-05-03T10:09:37.317Z,41.11
2023-05-03T10:12:07.889Z,39.99
2023-05-03T10:14:35.898Z,38.75
2023-05-03T10:17:08.896Z,39.45
2023-05-03T10:19:42.554Z,37.03
2023-05-03T10:24:15.650Z,38.27
2023-05-03T10:26:44.475Z,37.45
2023-05-03T10:29:45.539Z,37.82
2023-05-03T10:32:44.517Z,38.30
2023-05-03T10:35:14.149Z,38.04
2023-05-03T10:37:41.805Z,38.41
2023-05-03T10:40:12.288Z,37.64
2023-05-03T10:42:39.920Z,38.53
2023-05-03T10:45:08.773Z,38.57
2023-05-03T10:47:35.897Z,38.42
2023-05-03T10:50:26.946Z,37.72
2023-05-03T10:52:53.619Z,37.04
2023-05-03T10:55:23.155Z,36.32
2023-05-03T10:57:52.539Z,35.66
2023-05-03T11:00:24.161Z,36.13
2023-05-03T11:03:09.498Z,36.67
2023-05-03T11:05:37.024Z,35.93
2023-05-03T11:08:12.414Z,36.25
2023-05-03T11:10:41.204Z,36.23
2023-05-03T11:13:08.028Z,36.81
2023-05-03T11:15:35.190Z,36.79
2023-05-03T11:18:02.050Z,35.84
2023-05-03T11:20:29.299Z,35.38
2023-05-03T11:22:56.378Z,35.90
2023-05-03T11:25:23.060Z,35.79
2023-05-03T11:27:51.049Z,35.97
2023-05-03T11:30:17.694Z,35.43
2023-05-03T11:32:44.956Z,35.72
2023-05-03T11:35:13.248Z,36.31
2023-05-03T11:37:40.175Z,36.01
2023-05-03T11:40:14.819Z,34.89
2023-05-03T11:42:52.231Z,35.04
2023-05-03T11:45:22.665Z,34.83
2023-05-03T11:47:50.384Z,33.29
2023-05-03T11:50:17.792Z,33.33
2023-05-03T11:52:45.265Z,33.50
2023-05-03T11:55:12.325Z,33.69
2023-05-03T11:57:39.030Z,33.25
2023-05-03T12:00:15.238Z,34.50
2023-05-03T12:02:41.973Z,34.88
2023-05-03T12:05:09.978Z,34.45
2023-05-03T12:07:37.840Z,33.54
2023-05-03T12:10:20.764Z,34.67
2023-05-03T12:12:56.419Z,33.89
2023-05-03T12:15:33.914Z,33.08
2023-05-03T12:18:04.175Z,33.08
2023-05-03T12:23:03.957Z,33.50
2023-05-03T12:25:33.887Z,33.41
2023-05-03T12:28:18.687Z,34.79
2023-05-03T12:30:48.412Z,34.62
2023-05-03T12:33:15.832Z,33.87
2023-05-03T12:35:46.909Z,34.03
2023-05-03T12:38:16.596Z,34.28
2023-05-03T12:40:44.002Z,34.18
2023-05-03T12:43:10.807Z,33.57
2023-05-03T12:45:40.167Z,33.76
2023-05-03T12:48:09.166Z,33.61
2023-05-03T12:50:38.750Z,33.97
2023-05-03T12:53:09.288Z,35.17
2023-05-03T12:55:42.825Z,34.83
2023-05-03T13:00:49.251Z,35.78
2023-05-03T13:03:33.467Z,36.08
2023-05-03T13:06:01.416Z,35.68
2023-05-03T13:08:34.897Z,34.63
2023-05-03T13:11:02.223Z,35.03
2023-05-03T13:13:29.099Z,35.32
2023-05-03T13:15:55.779Z,35.64
2023-05-03T13:18:22.406Z,36.25
2023-05-03T13:20:50.423Z,37.25
2023-05-03T13:23:17.293Z,37.50
2023-05-03T13:25:44.502Z,36.18
2023-05-03T13:28:11.191Z,36.78
2023-05-03T13:30:37.815Z,37.16
2023-05-03T13:33:04.509Z,38.04
2023-05-03T13:35:31.329Z,36.93
2023-05-03T13:37:59.303Z,36.36
2023-05-03T13:40:25.904Z,36.12
2023-05-03T13:42:52.833Z,34.98
2023-05-03T13:45:19.543Z,36.08
2023-05-03T13:50:15.947Z,36.50
2023-05-03T13:52:42.626Z,36.95
2023-05-03T13:55:10.771Z,37.12
2023-05-03T13:57:37.362Z,38.25
2023-05-03T14:00:04.870Z,37.05
2023-05-03T14:02:31.877Z,36.38
2023-05-03T14:04:58.480Z,36.64
2023-05-03T14:07:25.114Z,37.47
2023-05-03T14:09:53.234Z,37.73
2023-05-03T14:12:21.207Z,36.91
2023-05-03T14:14:47.894Z,37.54
2023-05-03T14:17:14.727Z,37.69
2023-05-03T14:19:41.429Z,37.40
2023-05-03T14:22:08.058Z,37.02
2023-05-03T14:24:34.715Z,37.07
2023-05-03T14:27:01.345Z,36.85
2023-05-03T14:29:29.323Z,37.03
2023-05-03T14:31:55.945Z,36.55
2023-05-03T14:34:22.560Z,37.59
2023-05-03T14:36:49.114Z,37.63
2023-05-03T14:39:15.807Z,38.65
2023-05-03T14:41:45.021Z,39.18
2023-05-03T14:44:11.762Z,39.30
2023-05-03T14:46:40.124Z,37.86
2023-05-03T14:49:07.864Z,37.34
2023-05-03T14:51:34.488Z,37.41
2023-05-03T14:54:01.316Z,37.18
2023-05-03T14:56:27.912Z,38.54
2023-05-03T14:58:54.510Z,39.53
2023-05-03T15:01:22.002Z,38.40
2023-05-03T15:03:50.151Z,38.68
2023-05-03T15:06:22.834Z,38.53
2023-05-03T15:08:49.516Z,38.16
2023-05-03T15:11:16.133Z,39.23
2023-05-03T15:13:42.892Z,39.21
2023-05-03T15:16:09.848Z,40.04
2023-05-03T15:18:36.579Z,39.85
2023-05-03T15:21:05.131Z,39.98
2023-05-03T15:23:31.833Z,39.92
2023-05-03T15:25:58.442Z,40.07
2023-05-03T15:28:25.094Z,39.78
2023-05-03T15:30:51.678Z,39.35
2023-05-03T15:33:18.357Z,39.10
2023-05-03T15:35:45.001Z,39.85
2023-05-03T15:38:12.996Z,40.33
2023-05-03T15:40:40.345Z,40.45
2023-05-03T15:43:07.018Z,40.11
2023-05-03T15:45:33.718Z,39.30
2023-05-03T15:48:00.696Z,39.10
2023-05-03T15:50:27.537Z,38.84
2023-05-03T15:52:54.143Z,40.23
2023-05-03T15:55:22.650Z,39.40
2023-05-03T15:57:49.232Z,40.34
2023-05-03T16:00:16.871Z,40.11
2023-05-03T16:02:43.645Z,39.60
2023-05-03T16:05:10.802Z,39.63
2023-05-03T16:07:37.499Z,40.33
2023-05-03T16:10:04.816Z,40.01
2023-05-03T16:12:33.157Z,39.91
2023-05-03T16:14:59.918Z,39.44
2023-05-03T16:17:26.812Z,39.98
2023-05-03T16:19:53.694Z,40.05
2023-05-03T16:22:20.363Z,40.39
2023-05-03T16:24:46.990Z,40.76
2023-05-03T16:27:13.894Z,40.81
2023-05-03T16:29:41.873Z,40.50
2023-05-03T16:32:08.709Z,41.11
2023-05-03T16:34:35.619Z,41.23
2023-05-03T16:37:02.311Z,41.49
2023-05-03T16:39:28.949Z,41.07
2023-05-03T16:41:55.680Z,40.56
2023-05-03T16:44:22.342Z,40.29
2023-05-03T16:46:50.908Z,39.87
2023-05-03T16:49:17.616Z,40.45
2023-05-03T16:51:44.910Z,40.61
2023-05-03T16:54:11.554Z,41.85
2023-05-03T16:56:38.172Z,41.40
2023-05-03T16:59:04.848Z,41.26
2023-05-03T17:01:31.579Z,41.41
2023-05-03T17:03:59.617Z,40.86
2023-05-03T17:06:26.275Z,40.53
2023-05-03T17:08:53.250Z,40.84
2023-05-03T17:11:19.833Z,41.09
2023-05-03T17:13:46.377Z,41.02
2023-05-03T17:16:13.603Z,41.40
2023-05-03T17:18:41.364Z,41.81
2023-05-03T17:21:10.107Z,42.72
2023-05-03T17:23:38.241Z,41.61
2023-05-03T17:26:06.955Z,41.10
2023-05-03T17:28:33.826Z,40.94
2023-05-03T17:31:00.786Z,41.92
2023-05-03T17:33:27.434Z,41.77
2023-05-03T17:35:54.671Z,42.22
2023-05-03T17:38:23.047Z,41.49
2023-05-03T17:40:51.094Z,41.33
2023-05-03T17:43:18.068Z,42.05
2023-05-03T17:45:45.965Z,42.56
2023-05-03T17:48:13.695Z,42.65
2023-05-03T17:50:41.844Z,42.47
2023-05-03T17:53:08.834Z,42.29
2023-05-03T17:55:37.655Z,41.67
2023-05-03T17:58:04.788Z,42.13
2023-05-03T18:00:31.951Z,42.08
2023-05-03T18:02:58.958Z,42.57
2023-05-03T18:05:26.013Z,42.04
2023-05-03T18:07:52.996Z,41.96
2023-05-03T18:10:20.038Z,41.87
2023-05-03T18:12:48.289Z,41.98
2023-05-03T18:15:15.124Z,42.08
2023-05-03T18:17:42.487Z,42.37
2023-05-03T18:20:09.810Z,42.33
2023-05-03T18:22:37.133Z,42.23
2023-05-03T18:25:04.906Z,41.92
2023-05-03T18:27:31.866Z,41.42
2023-05-03T18:30:00.547Z,41.38
2023-05-03T18:32:27.447Z,41.66
2023-05-03T18:34:54.111Z,41.75
2023-05-03T18:37:23.105Z,42.64
2023-05-03T18:39:51.311Z,42.63
2023-05-03T18:42:18.678Z,43.47
2023-05-03T18:44:45.734Z,43.33
2023-05-03T18:47:14.070Z,43.47
2023-05-03T18:49:41.113Z,43.40
2023-05-03T18:52:08.093Z,44.22
2023-05-03T18:54:38.224Z,44.44
2023-05-03T18:57:05.047Z,44.65
2023-05-03T18:59:32.050Z,44.10
2023-05-03T19:01:59.344Z,44.42
2023-05-03T19:04:31.863Z,44.58
2023-05-03T19:06:59.041Z,45.29
2023-05-03T19:09:26.177Z,45.76
2023-05-03T19:11:53.381Z,46.04
2023-05-03T19:14:21.486Z,47.60
2023-05-03T19:16:48.452Z,47.38
2023-05-03T19:19:15.861Z,47.75
2023-05-03T19:21:44.992Z,49.28
2023-05-03T19:24:11.814Z,49.32
2023-05-03T19:26:38.565Z,49.46
2023-05-03T19:29:05.491Z,49.43
2023-05-03T19:31:32.276Z,49.50
2023-05-03T19:33:59.195Z,50.25
2023-05-03T19:36:26.386Z,50.40
2023-05-03T19:38:54.799Z,51.02
2023-05-03T19:41:22.070Z,52.05
2023-05-03T19:43:49.080Z,51.86
2023-05-03T19:46:19.636Z,52.09
2023-05-03T19:48:46.429Z,52.23
2023-05-03T19:51:14.042Z,52.62
2023-05-03T19:53:41.134Z,53.21
2023-05-03T19:56:09.788Z,53.25
2023-05-03T19:58:37.060Z,54.10
2023-05-03T20:01:03.960Z,53.99
2023-05-03T20:03:31.020Z,53.54
2023-05-03T20:05:58.166Z,54.50
2023-05-03T20:08:25.240Z,54.34
2023-05-03T20:10:52.137Z,54.68
2023-05-03T20:13:20.340Z,55.00
2023-05-03T20:15:47.502Z,54.99
2023-05-03T20:18:14.662Z,54.44
2023-05-03T20:20:41.779Z,55.20
2023-05-03T20:23:08.676Z,55.33
2023-05-03T20:25:35.480Z,55.13
2023-05-03T20:28:02.515Z,56.43
2023-05-03T20:30:30.641Z,56.42
2023-05-03T20:32:58.058Z,57.42
2023-05-03T20:35:25.166Z,57.47
2023-05-03T20:37:52.066Z,56.84
2023-05-03T20:40:19.315Z,57.41
2023-05-03T20:42:46.064Z,58.20
2023-05-03T20:45:13.043Z,58.52
2023-05-03T20:47:41.469Z,58.43
2023-05-03T20:50:09.082Z,59.73
2023-05-03T20:52:36.074Z,60.05
2023-05-03T20:55:03.181Z,60.24
2023-05-03T20:57:31.463Z,60.40
2023-05-03T20:59:59.086Z,59.42
2023-05-03T21:02:26.039Z,59.16
2023-05-03T21:04:54.635Z,58.38
2023-05-03T21:09:49.781Z,59.59
2023-05-03T21:12:16.986Z,59.92
2023-05-03T21:14:43.817Z,60.69
2023-05-03T21:17:10.887Z,60.64
2023-05-03T21:19:37.847Z,60.14
2023-05-03T21:22:06.258Z,61.25
2023-05-03T21:24:33.405Z,61.36
2023-05-03T21:27:00.972Z,61.65
2023-05-03T21:29:27.566Z,61.19
2023-05-03T21:32:06.379Z,60.91
2023-05-03T21:34:33.454Z,60.96
2023-05-03T21:37:00.262Z,61.73
2023-05-03T21:39:28.734Z,61.62
2023-05-03T21:41:55.537Z,62.23
2023-05-03T21:44:22.278Z,62.54
2023-05-03T21:46:49.545Z,61.79
2023-05-03T21:49:16.351Z,62.74
2023-05-03T21:51:43.230Z,63.67
2023-05-03T21:54:10.155Z,64.30
2023-05-03T21:56:39.023Z,64.97
2023-05-03T21:59:06.666Z,63.67
2023-05-03T22:01:33.648Z,63.99
2023-05-03T22:04:00.715Z,65.33
2023-05-03T22:06:28.636Z,66.81
2023-05-03T22:08:55.942Z,68.09
2023-05-03T22:11:23.833Z,65.85
2023-05-03T22:14:06.770Z,68.58
2023-05-03T22:16:35.494Z,67.17
2023-05-03T22:19:07.961Z,67.13
2023-05-03T22:21:52.292Z,66.69
2023-05-03T22:24:20.887Z,67.30
2023-05-03T22:26:47.808Z,67.77
2023-05-03T22:29:27.950Z,69.31
2023-05-03T22:32:21.197Z,70.12
2023-05-03T22:34:50.845Z,69.13
2023-05-03T22:37:19.578Z,72.86
2023-05-03T22:39:50.179Z,71.74
2023-05-03T22:42:18.236Z,70.39
2023-05-03T22:44:50.359Z,71.16
2023-05-03T22:47:17.052Z,73.18
2023-05-03T22:49:51.929Z,72.52
2023-05-03T22:52:18.862Z,74.59
2023-05-03T22:54:48.539Z,73.08
2023-05-03T22:57:18.828Z,71.91
2023-05-03T22:59:51.497Z,74.32
2023-05-03T23:02:19.314Z,73.80
2023-05-03T23:04:51.249Z,73.99
2023-05-03T23:07:24.003Z,75.16
2023-05-03T23:10:00.207Z,75.25
2023-05-03T23:12:37.750Z,76.20
2023-05-03T23:15:32.405Z,76.25
2023-05-03T23:18:09.374Z,77.39
2023-05-03T23:20:41.893Z,80.82
2023-05-03T23:23:09.394Z,77.37
2023-05-03T23:25:37.156Z,77.38
2023-05-03T23:28:04.082Z,78.44
2023-05-03T23:30:32.640Z,79.07
2023-05-03T23:33:00.385Z,80.33
2023-05-03T23:35:27.401Z,78.13
2023-05-03T23:37:54.559Z,78.60
2023-05-03T23:40:21.521Z,80.13
2023-05-03T23:42:48.185Z,80.92
2023-05-03T23:45:14.931Z,78.31
2023-05-03T23:47:45.790Z,77.48
2023-05-03T23:50:21.113Z,76.06
2023-05-03T23:52:55.423Z,77.40
2023-05-03T23:55:22.174Z,78.58
2023-05-03T23:57:48.939Z,76.46
